createdAt,value
2022-10-14T00:00:55.696Z,0.00
2022-10-14T00:01:55.798Z,0.00
2022-10-14T00:02:55.675Z,0.00
2022-10-14T00:03:55.681Z,0.00
2022-10-14T00:04:55.687Z,0.00
2022-10-14T00:05:55.679Z,0.00
2022-10-14T00:06:55.668Z,0.00
2022-10-14T00:07:55.671Z,0.00
2022-10-14T00:08:55.674Z,0.00
2022-10-14T00:09:55.667Z,0.00
2022-10-14T00:10:55.661Z,0.00
2022-10-14T00:11:55.666Z,0.00
2022-10-14T00:12:55.657Z,0.00
2022-10-14T00:13:55.649Z,0.00
2022-10-14T00:14:55.656Z,0.00
2022-10-14T00:15:55.672Z,0.00
2022-10-14T00:16:55.646Z,0.00
2022-10-14T00:17:55.636Z,0.00
2022-10-14T00:18:55.645Z,0.00
2022-10-14T00:19:55.637Z,0.00
2022-10-14T00:20:55.631Z,0.00
2022-10-14T00:21:55.647Z,0.00
2022-10-14T00:22:55.633Z,0.00
2022-10-14T00:23:55.631Z,0.00
2022-10-14T00:24:55.627Z,0.00
2022-10-14T00:25:55.624Z,0.00
2022-10-14T00:26:55.617Z,0.00
2022-10-14T00:27:55.620Z,0.00
2022-10-14T00:28:55.711Z,0.00
2022-10-14T00:29:55.617Z,0.00
2022-10-14T00:30:55.607Z,0.00
2022-10-14T00:31:55.626Z,0.00
2022-10-14T00:32:55.614Z,0.00
2022-10-14T00:33:55.593Z,0.00
2022-10-14T00:34:55.600Z,0.00
2022-10-14T00:35:55.590Z,0.00
2022-10-14T00:36:55.590Z,0.00
2022-10-14T00:37:55.585Z,0.00
2022-10-14T00:38:55.592Z,0.00
2022-10-14T00:39:57.168Z,0.00
2022-10-14T00:40:55.581Z,0.00
2022-10-14T00:41:55.583Z,0.00
2022-10-14T00:42:55.576Z,0.00
2022-10-14T00:43:55.572Z,0.00
2022-10-14T00:44:55.567Z,0.00
2022-10-14T00:45:55.573Z,0.00
2022-10-14T00:46:55.587Z,0.00
2022-10-14T00:47:55.586Z,0.00
2022-10-14T00:48:55.555Z,0.00
2022-10-14T00:49:55.558Z,0.00
2022-10-14T00:50:55.557Z,0.00
2022-10-14T00:51:55.548Z,0.00
2022-10-14T00:52:55.547Z,0.00
2022-10-14T00:53:55.546Z,0.00
2022-10-14T00:54:55.550Z,0.00
2022-10-14T00:55:55.544Z,0.00
2022-10-14T00:56:55.542Z,0.00
2022-10-14T00:57:55.532Z,0.00
2022-10-14T00:58:55.525Z,0.00
2022-10-14T00:59:55.524Z,0.00
2022-10-14T01:00:55.739Z,0.00
2022-10-14T01:01:55.537Z,0.00
2022-10-14T01:02:55.523Z,0.00
2022-10-14T01:03:55.539Z,0.00
2022-10-14T01:04:55.522Z,0.00
2022-10-14T01:05:55.508Z,0.00
2022-10-14T01:06:55.510Z,0.00
2022-10-14T01:07:55.503Z,0.00
2022-10-14T01:08:55.505Z,0.00
2022-10-14T01:09:55.500Z,0.00
2022-10-14T01:10:55.502Z,0.00
2022-10-14T01:12:16.200Z,0.00
2022-10-14T01:12:55.503Z,0.00
2022-10-14T01:13:55.501Z,0.00
2022-10-14T01:14:55.491Z,0.00
2022-10-14T01:15:55.490Z,0.00
2022-10-14T01:16:55.492Z,0.00
2022-10-14T01:17:55.488Z,0.00
2022-10-14T01:18:55.483Z,0.00
2022-10-14T01:19:55.495Z,0.00
2022-10-14T01:20:55.477Z,0.00
2022-10-14T01:21:55.477Z,0.00
2022-10-14T01:22:55.466Z,0.00
2022-10-14T01:23:55.472Z,0.00
2022-10-14T01:24:55.467Z,0.00
2022-10-14T01:25:55.459Z,0.00
2022-10-14T01:26:55.471Z,0.00
2022-10-14T01:27:55.459Z,0.00
2022-10-14T01:28:55.541Z,0.00
2022-10-14T01:29:55.456Z,0.00
2022-10-14T01:30:55.466Z,0.00
2022-10-14T01:31:55.449Z,0.00
2022-10-14T01:32:55.459Z,0.00
2022-10-14T01:33:55.438Z,0.00
2022-10-14T01:34:55.445Z,0.00
2022-10-14T01:35:55.458Z,0.00
2022-10-14T01:36:55.430Z,0.00
2022-10-14T01:37:55.434Z,0.00
2022-10-14T01:38:55.428Z,0.00
2022-10-14T01:39:55.426Z,0.00
2022-10-14T01:40:55.427Z,0.00
2022-10-14T01:41:55.422Z,0.00
2022-10-14T01:42:55.408Z,0.00
2022-10-14T01:43:55.410Z,0.00
2022-10-14T01:44:55.417Z,0.00
2022-10-14T01:45:55.419Z,0.00
2022-10-14T01:46:55.411Z,0.00
2022-10-14T01:47:55.398Z,0.00
2022-10-14T01:48:55.401Z,0.00
2022-10-14T01:49:55.400Z,0.00
2022-10-14T01:50:55.400Z,0.00
2022-10-14T01:51:55.413Z,0.00
2022-10-14T01:52:55.384Z,0.00
2022-10-14T01:53:55.402Z,0.00
2022-10-14T01:54:55.385Z,0.00
2022-10-14T01:55:55.391Z,0.00
2022-10-14T01:56:55.373Z,0.00
2022-10-14T01:57:55.380Z,0.00
2022-10-14T01:58:55.366Z,0.00
2022-10-14T01:59:55.378Z,0.00
2022-10-14T02:00:55.366Z,0.00
2022-10-14T02:01:55.449Z,0.00
2022-10-14T02:02:55.357Z,0.00
2022-10-14T02:03:55.351Z,0.00
2022-10-14T02:04:55.362Z,0.00
2022-10-14T02:05:55.350Z,0.00
2022-10-14T02:06:55.359Z,0.00
2022-10-14T02:07:55.367Z,0.00
2022-10-14T02:08:55.362Z,0.00
2022-10-14T02:09:55.347Z,0.00
2022-10-14T02:11:01.027Z,0.00
2022-10-14T02:11:55.335Z,0.00
2022-10-14T02:12:55.337Z,0.00
2022-10-14T02:13:55.326Z,0.00
2022-10-14T02:14:55.331Z,0.00
2022-10-14T02:15:55.330Z,0.00
2022-10-14T02:16:55.341Z,0.00
2022-10-14T02:17:55.323Z,0.00
2022-10-14T02:18:55.324Z,0.00
2022-10-14T02:19:55.321Z,0.00
2022-10-14T02:20:55.315Z,0.00
2022-10-14T02:21:55.306Z,0.00
2022-10-14T02:22:55.317Z,0.00
2022-10-14T02:23:55.329Z,0.00
2022-10-14T02:24:55.304Z,0.00
2022-10-14T02:25:55.296Z,0.00
2022-10-14T02:26:55.296Z,0.00
2022-10-14T02:27:55.290Z,0.00
2022-10-14T02:28:55.392Z,0.00
2022-10-14T02:29:55.298Z,0.00
2022-10-14T02:30:55.292Z,0.00
2022-10-14T02:31:55.290Z,0.00
2022-10-14T02:32:55.283Z,0.00
2022-10-14T02:33:55.282Z,0.00
2022-10-14T02:34:55.281Z,0.00
2022-10-14T02:35:55.274Z,0.00
2022-10-14T02:36:55.273Z,0.00
2022-10-14T02:37:55.268Z,0.00
2022-10-14T02:38:55.269Z,0.00
2022-10-14T02:39:55.295Z,0.00
2022-10-14T02:40:55.272Z,0.00
2022-10-14T02:41:55.258Z,0.00
2022-10-14T02:42:55.259Z,0.00
2022-10-14T02:43:55.256Z,0.00
2022-10-14T02:44:55.246Z,0.00
2022-10-14T02:45:55.243Z,0.00
2022-10-14T02:46:55.241Z,0.00
2022-10-14T02:47:55.263Z,0.00
2022-10-14T02:48:55.236Z,0.00
2022-10-14T02:49:55.248Z,0.00
2022-10-14T02:50:55.231Z,0.00
2022-10-14T02:51:55.233Z,0.00
2022-10-14T02:52:55.225Z,0.00
2022-10-14T02:53:55.228Z,0.00
2022-10-14T02:54:55.227Z,0.00
2022-10-14T02:55:55.247Z,0.00
2022-10-14T02:56:55.224Z,0.00
2022-10-14T02:57:55.215Z,0.00
2022-10-14T02:58:55.214Z,0.00
2022-10-14T03:00:37.444Z,0.00
2022-10-14T03:01:38.041Z,0.00
2022-10-14T03:02:37.423Z,0.00
2022-10-14T03:03:37.521Z,0.00
2022-10-14T03:04:37.415Z,0.00
2022-10-14T03:05:37.410Z,0.00
2022-10-14T03:06:37.420Z,0.00
2022-10-14T03:07:37.407Z,0.00
2022-10-14T03:08:37.406Z,0.00
2022-10-14T03:09:37.404Z,0.00
2022-10-14T03:10:37.399Z,0.00
2022-10-14T03:11:37.425Z,0.00
2022-10-14T03:12:37.409Z,0.00
2022-10-14T03:13:37.396Z,0.00
2022-10-14T03:14:37.397Z,0.00
2022-10-14T03:15:37.389Z,0.00
2022-10-14T03:16:37.399Z,0.00
2022-10-14T03:17:37.389Z,0.00
2022-10-14T03:18:37.388Z,0.00
2022-10-14T03:19:37.374Z,0.00
2022-10-14T03:20:37.411Z,0.00
2022-10-14T03:21:37.394Z,0.00
2022-10-14T03:22:37.382Z,0.00
2022-10-14T03:23:37.366Z,0.00
2022-10-14T03:24:37.367Z,0.00
2022-10-14T03:25:37.366Z,0.00
2022-10-14T03:26:37.366Z,0.00
2022-10-14T03:27:37.384Z,0.00
2022-10-14T03:28:37.403Z,0.00
2022-10-14T03:29:37.351Z,0.00
2022-10-14T03:30:37.357Z,0.00
2022-10-14T03:31:37.347Z,0.00
2022-10-14T03:32:37.341Z,0.00
2022-10-14T03:33:37.384Z,0.00
2022-10-14T03:34:37.346Z,0.00
2022-10-14T03:35:37.331Z,0.00
2022-10-14T03:36:37.335Z,0.00
2022-10-14T03:37:37.343Z,0.00
2022-10-14T03:38:37.432Z,0.00
2022-10-14T03:39:37.379Z,0.00
2022-10-14T03:40:37.319Z,0.00
2022-10-14T03:41:37.320Z,0.00
2022-10-14T03:42:37.316Z,0.00
2022-10-14T03:43:37.326Z,0.00
2022-10-14T03:44:37.307Z,0.00
2022-10-14T03:45:37.311Z,0.00
2022-10-14T03:46:37.307Z,0.00
2022-10-14T03:47:37.309Z,0.00
2022-10-14T03:48:37.298Z,0.00
2022-10-14T03:49:37.292Z,0.00
2022-10-14T03:50:37.290Z,0.00
2022-10-14T03:51:37.286Z,0.00
2022-10-14T03:52:37.294Z,0.00
2022-10-14T03:53:37.301Z,0.00
2022-10-14T03:54:37.283Z,0.00
2022-10-14T03:55:37.282Z,0.00
2022-10-14T03:56:37.273Z,0.00
2022-10-14T03:57:37.277Z,0.00
2022-10-14T03:58:37.283Z,0.00
2022-10-14T03:59:37.288Z,0.00
2022-10-14T04:00:37.291Z,0.00
2022-10-14T04:01:37.333Z,0.00
2022-10-14T04:02:37.274Z,0.00
2022-10-14T04:03:37.256Z,0.00
2022-10-14T04:04:37.263Z,0.00
2022-10-14T04:05:37.264Z,0.00
2022-10-14T04:06:37.247Z,0.00
2022-10-14T04:07:37.260Z,0.00
2022-10-14T04:08:37.258Z,0.00
2022-10-14T04:09:37.249Z,0.00
2022-10-14T04:10:37.242Z,0.00
2022-10-14T04:11:37.238Z,0.00
2022-10-14T04:12:37.228Z,0.00
2022-10-14T04:13:37.236Z,0.00
2022-10-14T04:14:37.234Z,0.00
2022-10-14T04:15:37.258Z,0.00
2022-10-14T04:16:37.232Z,0.00
2022-10-14T04:17:37.221Z,0.00
2022-10-14T04:18:37.219Z,0.00
2022-10-14T04:19:37.217Z,0.00
2022-10-14T04:20:37.208Z,0.00
2022-10-14T04:21:37.209Z,0.00
2022-10-14T04:22:37.203Z,0.00
2022-10-14T04:23:37.210Z,0.00
2022-10-14T04:24:37.198Z,0.00
2022-10-14T04:25:37.196Z,0.00
2022-10-14T04:26:37.198Z,0.00
2022-10-14T04:27:37.187Z,0.00
2022-10-14T04:28:37.287Z,0.00
2022-10-14T04:29:37.237Z,0.00
2022-10-14T04:30:37.182Z,0.00
2022-10-14T04:31:37.239Z,0.00
2022-10-14T04:32:37.187Z,0.00
2022-10-14T04:33:37.186Z,0.00
2022-10-14T04:34:37.177Z,0.00
2022-10-14T04:35:37.171Z,0.00
2022-10-14T04:36:37.165Z,0.00
2022-10-14T04:37:37.170Z,0.00
2022-10-14T04:38:37.170Z,0.00
2022-10-14T04:39:37.156Z,0.00
2022-10-14T04:40:37.172Z,0.00
2022-10-14T04:41:37.167Z,0.00
2022-10-14T04:42:37.154Z,0.00
2022-10-14T04:43:37.161Z,0.00
2022-10-14T04:44:37.171Z,0.00
2022-10-14T04:45:37.148Z,0.00
2022-10-14T04:46:37.159Z,0.00
2022-10-14T04:47:37.154Z,0.00
2022-10-14T04:48:37.141Z,0.00
2022-10-14T04:49:37.134Z,0.00
2022-10-14T04:50:37.127Z,0.00
2022-10-14T04:51:37.130Z,0.00
2022-10-14T04:52:37.122Z,0.00
2022-10-14T04:53:37.133Z,0.00
2022-10-14T04:54:37.126Z,0.00
2022-10-14T04:55:37.120Z,0.00
2022-10-14T04:56:37.111Z,0.00
2022-10-14T04:57:37.115Z,0.00
2022-10-14T04:58:37.114Z,0.00
2022-10-14T04:59:37.114Z,0.00
2022-10-14T05:00:37.099Z,0.00
2022-10-14T05:01:37.161Z,0.00
2022-10-14T05:02:37.096Z,0.00
2022-10-14T05:03:37.120Z,0.00
2022-10-14T05:04:37.086Z,0.00
2022-10-14T05:05:37.092Z,0.00
2022-10-14T05:06:37.092Z,0.00
2022-10-14T05:07:37.089Z,0.00
2022-10-14T05:08:37.087Z,0.00
2022-10-14T05:09:37.090Z,0.00
2022-10-14T05:10:37.080Z,0.00
2022-10-14T05:11:37.079Z,0.00
2022-10-14T05:12:37.076Z,0.00
2022-10-14T05:13:37.072Z,0.00
2022-10-14T05:14:37.080Z,0.00
2022-10-14T05:15:37.075Z,0.00
2022-10-14T05:16:37.055Z,0.00
2022-10-14T05:17:37.063Z,0.00
2022-10-14T05:18:37.049Z,0.00
2022-10-14T05:19:37.725Z,0.00
2022-10-14T05:20:37.058Z,0.00
2022-10-14T05:21:37.043Z,0.00
2022-10-14T05:22:37.051Z,0.00
2022-10-14T05:23:37.043Z,0.00
2022-10-14T05:24:37.046Z,0.00
2022-10-14T05:25:37.036Z,0.00
2022-10-14T05:26:37.029Z,0.00
2022-10-14T05:27:37.030Z,0.00
2022-10-14T05:28:37.140Z,0.00
2022-10-14T05:29:37.023Z,0.00
2022-10-14T05:30:37.033Z,0.00
2022-10-14T05:31:37.022Z,0.00
2022-10-14T05:32:37.022Z,0.00
2022-10-14T05:33:37.012Z,0.00
2022-10-14T05:34:37.017Z,0.00
2022-10-14T05:35:57.599Z,4.00
2022-10-14T05:36:37.013Z,4.00
2022-10-14T05:37:37.007Z,4.00
2022-10-14T05:38:36.996Z,4.00
2022-10-14T05:39:37.016Z,4.00
2022-10-14T05:40:36.994Z,4.00
2022-10-14T05:41:37.008Z,8.00
2022-10-14T05:42:37.024Z,4.00
2022-10-14T05:43:36.994Z,4.00
2022-10-14T05:44:36.982Z,8.00
2022-10-14T05:45:37.001Z,8.00
2022-10-14T05:46:36.985Z,8.00
2022-10-14T05:47:36.984Z,8.00
2022-10-14T05:48:36.979Z,8.00
2022-10-14T05:49:36.981Z,8.00
2022-10-14T05:50:36.979Z,8.00
2022-10-14T05:51:36.999Z,8.00
2022-10-14T05:52:36.979Z,8.00
2022-10-14T05:53:36.989Z,8.00
2022-10-14T05:54:36.962Z,4.00
2022-10-14T05:55:36.974Z,8.00
2022-10-14T05:56:36.970Z,4.00
2022-10-14T05:57:36.966Z,4.00
2022-10-14T05:58:36.957Z,8.00
2022-10-14T05:59:36.967Z,4.00
2022-10-14T06:00:36.959Z,4.00
2022-10-14T06:01:36.963Z,4.00
2022-10-14T06:02:36.952Z,8.00
2022-10-14T06:03:36.959Z,8.00
2022-10-14T06:04:36.959Z,12.00
2022-10-14T06:05:36.951Z,12.00
2022-10-14T06:06:36.949Z,16.00
2022-10-14T06:07:36.963Z,12.00
2022-10-14T06:08:36.953Z,16.00
2022-10-14T06:09:36.949Z,20.00
2022-10-14T06:10:36.970Z,20.00
2022-10-14T06:11:36.937Z,20.00
2022-10-14T06:12:36.945Z,20.00
2022-10-14T06:13:36.932Z,20.00
2022-10-14T06:14:36.940Z,20.00
2022-10-14T06:15:36.941Z,16.00
2022-10-14T06:16:36.935Z,20.00
2022-10-14T06:17:36.934Z,24.00
2022-10-14T06:18:36.962Z,28.00
2022-10-14T06:19:36.929Z,32.00
2022-10-14T06:20:36.929Z,32.00
2022-10-14T06:21:36.931Z,36.00
2022-10-14T06:22:36.923Z,40.00
2022-10-14T06:23:36.959Z,40.00
2022-10-14T06:24:36.921Z,40.00
2022-10-14T06:25:36.929Z,36.00
2022-10-14T06:26:36.917Z,32.00
2022-10-14T06:27:36.925Z,32.00
2022-10-14T06:28:37.023Z,36.00
2022-10-14T06:29:36.911Z,32.00
2022-10-14T06:30:36.902Z,28.00
2022-10-14T06:31:36.909Z,36.00
2022-10-14T06:32:36.908Z,36.00
2022-10-14T06:33:36.903Z,36.00
2022-10-14T06:34:36.897Z,36.00
2022-10-14T06:35:36.912Z,40.00
2022-10-14T06:36:36.929Z,44.00
2022-10-14T06:37:36.904Z,44.00
2022-10-14T06:38:36.897Z,44.00
2022-10-14T06:39:36.921Z,48.00
2022-10-14T06:40:36.917Z,52.00
2022-10-14T06:41:36.887Z,52.00
2022-10-14T06:42:36.885Z,48.00
2022-10-14T06:43:36.893Z,52.00
2022-10-14T06:44:36.888Z,52.00
2022-10-14T06:45:36.898Z,48.00
2022-10-14T06:46:36.880Z,48.00
2022-10-14T06:47:36.887Z,48.00
2022-10-14T06:48:36.900Z,52.00
2022-10-14T06:49:36.876Z,56.00
2022-10-14T06:50:36.878Z,60.00
2022-10-14T06:51:36.878Z,64.00
2022-10-14T06:52:36.885Z,64.00
2022-10-14T06:53:36.890Z,64.00
2022-10-14T06:54:39.613Z,64.00
2022-10-14T06:55:36.894Z,64.00
2022-10-14T06:56:36.897Z,64.00
2022-10-14T06:57:36.893Z,64.00
2022-10-14T06:58:36.888Z,60.00
2022-10-14T06:59:36.886Z,56.00
2022-10-14T07:00:36.947Z,56.00
2022-10-14T07:01:36.988Z,56.00
2022-10-14T07:02:36.872Z,60.00
2022-10-14T07:03:36.881Z,60.00
2022-10-14T07:04:36.862Z,64.00
2022-10-14T07:05:36.864Z,60.00
2022-10-14T07:06:36.848Z,60.00
2022-10-14T07:07:36.844Z,56.00
2022-10-14T07:08:36.854Z,48.00
2022-10-14T07:09:36.865Z,48.00
2022-10-14T07:10:36.847Z,48.00
2022-10-14T07:11:36.914Z,52.00
2022-10-14T07:12:36.837Z,56.00
2022-10-14T07:13:36.839Z,56.00
2022-10-14T07:14:36.844Z,52.00
2022-10-14T07:15:36.841Z,44.00
2022-10-14T07:16:36.841Z,44.00
2022-10-14T07:17:36.845Z,48.00
2022-10-14T07:18:36.832Z,52.00
2022-10-14T07:19:36.837Z,64.00
2022-10-14T07:20:36.824Z,76.00
2022-10-14T07:21:36.830Z,76.00
2022-10-14T07:22:38.933Z,76.00
2022-10-14T07:23:36.845Z,84.00
2022-10-14T07:24:36.813Z,80.00
2022-10-14T07:25:36.823Z,80.00
2022-10-14T07:26:36.814Z,80.00
2022-10-14T07:27:36.847Z,76.00
2022-10-14T07:28:36.937Z,84.00
2022-10-14T07:29:36.814Z,92.00
2022-10-14T07:30:37.163Z,100.00
2022-10-14T07:31:36.803Z,108.00
2022-10-14T07:32:36.809Z,120.00
2022-10-14T07:34:36.793Z,124.00
2022-10-14T07:35:36.795Z,116.00
2022-10-14T07:36:36.788Z,108.00
2022-10-14T07:37:36.798Z,100.00
2022-10-14T07:38:36.803Z,104.00
2022-10-14T07:39:36.800Z,108.00
2022-10-14T07:40:36.821Z,112.00
2022-10-14T07:41:36.785Z,116.00
2022-10-14T07:42:36.780Z,112.00
2022-10-14T07:43:36.807Z,112.00
2022-10-14T07:44:36.777Z,124.00
2022-10-14T07:45:36.782Z,136.00
2022-10-14T07:46:36.789Z,132.00
2022-10-14T07:47:36.777Z,120.00
2022-10-14T07:48:52.663Z,116.00
2022-10-14T07:49:36.766Z,100.00
2022-10-14T07:50:36.765Z,96.00
2022-10-14T07:51:36.769Z,104.00
2022-10-14T07:52:36.767Z,112.00
2022-10-14T07:53:36.760Z,124.00
2022-10-14T07:54:36.764Z,140.00
2022-10-14T07:55:36.764Z,156.00
2022-10-14T07:56:36.787Z,156.00
2022-10-14T07:57:36.752Z,156.00
2022-10-14T07:58:38.946Z,152.00
2022-10-14T07:59:36.763Z,148.00
2022-10-14T08:00:36.755Z,156.00
2022-10-14T08:01:36.800Z,168.00
2022-10-14T08:02:36.742Z,184.00
2022-10-14T08:03:36.741Z,192.00
2022-10-14T08:04:36.736Z,192.00
2022-10-14T08:05:38.586Z,208.00
2022-10-14T08:06:36.740Z,212.00
2022-10-14T08:07:36.732Z,212.00
2022-10-14T08:08:36.726Z,212.00
2022-10-14T08:09:36.749Z,220.00
2022-10-14T08:10:36.722Z,228.00
2022-10-14T08:11:36.729Z,224.00
2022-10-14T08:12:36.721Z,216.00
2022-10-14T08:13:39.394Z,216.00
2022-10-14T08:14:36.728Z,204.00
2022-10-14T08:15:36.739Z,192.00
2022-10-14T08:16:36.717Z,180.00
2022-10-14T08:17:36.713Z,164.00
2022-10-14T08:18:36.712Z,160.00
2022-10-14T08:19:36.709Z,160.00
2022-10-14T08:20:36.710Z,172.00
2022-10-14T08:21:36.705Z,180.00
2022-10-14T08:22:36.698Z,188.00
2022-10-14T08:23:36.698Z,200.00
2022-10-14T08:24:36.695Z,200.00
2022-10-14T08:25:36.699Z,204.00
2022-10-14T08:26:36.698Z,204.00
2022-10-14T08:27:36.696Z,208.00
2022-10-14T08:28:36.726Z,216.00
2022-10-14T08:29:36.700Z,216.00
2022-10-14T08:30:36.785Z,216.00
2022-10-14T08:31:36.727Z,212.00
2022-10-14T08:32:36.721Z,220.00
2022-10-14T08:33:36.713Z,232.00
2022-10-14T08:34:36.713Z,232.00
2022-10-14T08:35:36.717Z,228.00
2022-10-14T08:36:36.759Z,216.00
2022-10-14T08:37:36.725Z,216.00
2022-10-14T08:38:36.707Z,220.00
2022-10-14T08:39:36.687Z,220.00
2022-10-14T08:40:36.692Z,216.00
2022-10-14T08:41:36.670Z,216.00
2022-10-14T08:42:36.697Z,224.00
2022-10-14T08:43:36.686Z,232.00
2022-10-14T08:44:36.680Z,232.00
2022-10-14T08:45:36.684Z,244.00
2022-10-14T08:46:36.709Z,248.00
2022-10-14T08:47:36.750Z,260.00
2022-10-14T08:48:36.668Z,268.00
2022-10-14T08:49:36.653Z,280.00
2022-10-14T08:50:36.705Z,288.00
2022-10-14T08:51:36.693Z,288.00
2022-10-14T08:52:37.747Z,276.00
2022-10-14T08:53:36.715Z,276.00
2022-10-14T08:54:36.687Z,276.00
2022-10-14T08:55:36.699Z,264.00
2022-10-14T08:56:36.668Z,252.00
2022-10-14T08:57:36.663Z,244.00
2022-10-14T08:58:36.665Z,256.00
2022-10-14T08:59:36.639Z,256.00
2022-10-14T09:00:36.626Z,248.00
2022-10-14T09:01:36.622Z,240.00
2022-10-14T09:02:36.627Z,232.00
2022-10-14T09:03:36.644Z,244.00
2022-10-14T09:04:36.618Z,252.00
2022-10-14T09:05:36.610Z,244.00
2022-10-14T09:06:36.620Z,252.00
2022-10-14T09:07:36.605Z,252.00
2022-10-14T09:08:36.614Z,260.00
2022-10-14T09:09:36.606Z,264.00
2022-10-14T09:10:36.610Z,264.00
2022-10-14T09:11:36.595Z,264.00
2022-10-14T09:12:36.606Z,272.00
2022-10-14T09:13:36.601Z,284.00
2022-10-14T09:14:36.592Z,276.00
2022-10-14T09:15:36.587Z,272.00
2022-10-14T09:16:36.597Z,284.00
2022-10-14T09:17:37.995Z,296.00
2022-10-14T09:18:36.592Z,304.00
2022-10-14T09:19:36.607Z,304.00
2022-10-14T09:20:36.592Z,304.00
2022-10-14T09:21:53.250Z,300.00
2022-10-14T09:22:36.587Z,308.00
2022-10-14T09:23:36.574Z,312.00
2022-10-14T09:24:36.581Z,320.00
2022-10-14T09:25:36.579Z,324.00
2022-10-14T09:26:36.602Z,312.00
2022-10-14T09:27:36.622Z,312.00
2022-10-14T09:28:36.701Z,320.00
2022-10-14T09:29:36.562Z,332.00
2022-10-14T09:30:36.558Z,340.00
2022-10-14T09:31:36.579Z,352.00
2022-10-14T09:32:36.562Z,352.00
2022-10-14T09:33:39.594Z,372.00
2022-10-14T09:34:36.563Z,368.00
2022-10-14T09:35:36.582Z,368.00
2022-10-14T09:36:36.548Z,376.00
2022-10-14T09:37:36.573Z,380.00
2022-10-14T09:38:36.548Z,372.00
2022-10-14T09:39:36.547Z,360.00
2022-10-14T09:40:36.549Z,324.00
2022-10-14T09:41:36.535Z,292.00
2022-10-14T09:42:36.533Z,280.00
2022-10-14T09:43:36.541Z,304.00
2022-10-14T09:44:36.536Z,340.00
2022-10-14T09:45:36.537Z,372.00
2022-10-14T09:46:36.535Z,376.00
2022-10-14T09:47:36.530Z,344.00
2022-10-14T09:48:36.522Z,320.00
2022-10-14T09:49:36.529Z,320.00
2022-10-14T09:50:36.520Z,324.00
2022-10-14T09:51:36.541Z,332.00
2022-10-14T09:52:36.519Z,360.00
2022-10-14T09:53:36.531Z,392.00
2022-10-14T09:54:36.517Z,420.00
2022-10-14T09:55:36.512Z,432.00
2022-10-14T09:56:39.126Z,424.00
2022-10-14T09:57:36.508Z,424.00
2022-10-14T09:58:36.513Z,436.00
2022-10-14T09:59:36.499Z,440.00
2022-10-14T10:00:36.536Z,420.00
2022-10-14T10:01:36.495Z,404.00
2022-10-14T10:02:36.502Z,404.00
2022-10-14T10:03:36.494Z,420.00
2022-10-14T10:04:36.507Z,440.00
2022-10-14T10:05:36.514Z,424.00
2022-10-14T10:06:36.508Z,416.00
2022-10-14T10:07:36.600Z,412.00
2022-10-14T10:08:36.493Z,400.00
2022-10-14T10:09:36.571Z,396.00
2022-10-14T10:10:36.482Z,392.00
2022-10-14T10:11:36.481Z,392.00
2022-10-14T10:12:36.469Z,388.00
2022-10-14T10:13:36.470Z,376.00
2022-10-14T10:14:36.475Z,368.00
2022-10-14T10:15:36.469Z,364.00
2022-10-14T10:16:36.611Z,368.00
2022-10-14T10:17:36.467Z,368.00
2022-10-14T10:18:36.466Z,348.00
2022-10-14T10:19:36.467Z,364.00
2022-10-14T10:20:36.460Z,364.00
2022-10-14T10:21:36.460Z,360.00
2022-10-14T10:22:36.452Z,356.00
2022-10-14T10:23:36.474Z,360.00
2022-10-14T10:24:36.466Z,364.00
2022-10-14T10:25:36.452Z,356.00
2022-10-14T10:26:36.450Z,340.00
2022-10-14T10:27:36.446Z,336.00
2022-10-14T10:28:36.473Z,324.00
2022-10-14T10:29:36.441Z,316.00
2022-10-14T10:30:36.445Z,304.00
2022-10-14T10:31:36.613Z,296.00
2022-10-14T10:32:36.433Z,288.00
2022-10-14T10:33:36.436Z,276.00
2022-10-14T10:34:36.428Z,272.00
2022-10-14T10:35:36.422Z,268.00
2022-10-14T10:36:36.451Z,244.00
2022-10-14T10:37:36.427Z,244.00
2022-10-14T10:38:36.434Z,252.00
2022-10-14T10:39:36.442Z,260.00
2022-10-14T10:40:36.461Z,276.00
2022-10-14T10:41:36.418Z,284.00
2022-10-14T10:42:36.409Z,280.00
2022-10-14T10:43:36.420Z,260.00
2022-10-14T10:44:36.423Z,260.00
2022-10-14T10:45:36.837Z,260.00
2022-10-14T10:46:36.423Z,252.00
2022-10-14T10:47:36.428Z,264.00
2022-10-14T10:48:36.415Z,280.00
2022-10-14T10:49:36.421Z,284.00
2022-10-14T10:50:36.409Z,272.00
2022-10-14T10:51:36.407Z,268.00
2022-10-14T10:52:36.410Z,264.00
2022-10-14T10:53:36.403Z,268.00
2022-10-14T10:54:36.406Z,276.00
2022-10-14T10:55:36.464Z,284.00
2022-10-14T10:56:36.399Z,300.00
2022-10-14T10:57:36.392Z,300.00
2022-10-14T10:58:36.398Z,296.00
2022-10-14T10:59:36.393Z,288.00
2022-10-14T11:00:36.402Z,280.00
2022-10-14T11:01:36.461Z,260.00
2022-10-14T11:02:36.962Z,236.00
2022-10-14T11:03:36.386Z,236.00
2022-10-14T11:04:36.386Z,232.00
2022-10-14T11:05:36.377Z,256.00
2022-10-14T11:06:36.393Z,276.00
2022-10-14T11:07:36.375Z,268.00
2022-10-14T11:08:36.410Z,244.00
2022-10-14T11:09:36.364Z,228.00
2022-10-14T11:10:36.368Z,220.00
2022-10-14T11:11:36.385Z,236.00
2022-10-14T11:12:36.368Z,240.00
2022-10-14T11:13:36.359Z,248.00
2022-10-14T11:14:36.363Z,252.00
2022-10-14T11:15:36.354Z,232.00
2022-10-14T11:16:36.405Z,228.00
2022-10-14T11:17:36.413Z,232.00
2022-10-14T11:18:36.358Z,236.00
2022-10-14T11:19:36.350Z,236.00
2022-10-14T11:20:36.351Z,244.00
2022-10-14T11:21:36.340Z,240.00
2022-10-14T11:22:36.363Z,240.00
2022-10-14T11:23:36.340Z,268.00
2022-10-14T11:24:36.339Z,288.00
2022-10-14T11:25:36.336Z,292.00
2022-10-14T11:26:36.338Z,288.00
2022-10-14T11:27:36.351Z,276.00
2022-10-14T11:28:36.867Z,276.00
2022-10-14T11:29:36.311Z,276.00
2022-10-14T11:30:36.316Z,276.00
2022-10-14T11:31:36.310Z,272.00
2022-10-14T11:32:36.314Z,280.00
2022-10-14T11:33:39.760Z,300.00
2022-10-14T11:34:36.300Z,316.00
2022-10-14T11:35:36.313Z,304.00
2022-10-14T11:36:36.317Z,276.00
2022-10-14T11:37:36.295Z,240.00
2022-10-14T11:38:36.306Z,256.00
2022-10-14T11:39:36.292Z,256.00
2022-10-14T11:40:36.300Z,248.00
2022-10-14T11:41:36.303Z,240.00
2022-10-14T11:42:36.362Z,240.00
2022-10-14T11:43:36.311Z,264.00
2022-10-14T11:44:36.330Z,292.00
2022-10-14T11:45:36.295Z,304.00
2022-10-14T11:46:36.283Z,312.00
2022-10-14T11:47:36.309Z,288.00
2022-10-14T11:48:36.280Z,272.00
2022-10-14T11:49:36.331Z,276.00
2022-10-14T11:50:36.275Z,240.00
2022-10-14T11:51:36.282Z,236.00
2022-10-14T11:52:36.267Z,236.00
2022-10-14T11:54:36.267Z,236.00
2022-10-14T11:55:36.272Z,252.00
2022-10-14T11:56:36.262Z,264.00
2022-10-14T11:57:36.319Z,260.00
2022-10-14T11:58:36.261Z,248.00
2022-10-14T11:59:36.277Z,240.00
2022-10-14T12:00:36.256Z,236.00
2022-10-14T12:01:38.140Z,232.00
2022-10-14T12:02:36.302Z,232.00
2022-10-14T12:03:36.257Z,236.00
2022-10-14T12:04:36.258Z,244.00
2022-10-14T12:05:36.253Z,244.00
2022-10-14T12:06:36.246Z,232.00
2022-10-14T12:07:36.240Z,232.00
2022-10-14T12:08:36.246Z,220.00
2022-10-14T12:10:36.234Z,236.00
2022-10-14T12:11:36.226Z,232.00
2022-10-14T12:12:36.232Z,212.00
2022-10-14T12:13:36.221Z,200.00
2022-10-14T12:14:36.217Z,188.00
2022-10-14T12:15:36.262Z,180.00
2022-10-14T12:16:36.217Z,176.00
2022-10-14T12:17:36.226Z,156.00
2022-10-14T12:19:36.210Z,152.00
2022-10-14T12:20:36.206Z,144.00
2022-10-14T12:21:36.212Z,136.00
2022-10-14T12:22:36.213Z,132.00
2022-10-14T12:23:36.201Z,140.00
2022-10-14T12:24:36.203Z,168.00
2022-10-14T12:25:36.205Z,164.00
2022-10-14T12:26:36.193Z,164.00
2022-10-14T12:28:36.266Z,160.00
2022-10-14T12:29:36.193Z,168.00
2022-10-14T12:30:36.196Z,164.00
2022-10-14T12:31:36.214Z,176.00
2022-10-14T12:32:36.203Z,176.00
2022-10-14T12:33:38.808Z,188.00
2022-10-14T12:34:36.399Z,180.00
2022-10-14T12:35:36.192Z,184.00
2022-10-14T12:37:36.422Z,184.00
2022-10-14T12:38:36.170Z,176.00
2022-10-14T12:39:36.164Z,172.00
2022-10-14T12:40:36.174Z,176.00
2022-10-14T12:41:36.171Z,168.00
2022-10-14T12:42:36.171Z,172.00
2022-10-14T12:43:36.168Z,176.00
2022-10-14T12:44:36.157Z,188.00
2022-10-14T12:45:36.246Z,192.00
2022-10-14T12:46:36.168Z,192.00
2022-10-14T12:47:36.177Z,200.00
2022-10-14T12:48:36.160Z,224.00
2022-10-14T12:49:36.154Z,228.00
2022-10-14T12:50:36.162Z,256.00
2022-10-14T12:51:36.141Z,268.00
2022-10-14T12:52:36.141Z,256.00
2022-10-14T12:53:36.198Z,284.00
2022-10-14T12:54:36.150Z,264.00
2022-10-14T12:55:36.140Z,224.00
2022-10-14T12:56:36.131Z,200.00
2022-10-14T12:57:38.738Z,216.00
2022-10-14T12:58:36.132Z,208.00
2022-10-14T12:59:36.134Z,208.00
2022-10-14T13:00:36.134Z,204.00